Terminal Aerodrome Forecast
Issued by NWS

Home | Current Version | Previous Version | Graphics & Text | Print | Product List | Glossary On
Versions: 1 2 3 4 5 6 7 8 9 10 11 12 13 14 15 16 17 18 19 20 21 22 23 24 25 26 27 28 29 30 31 32 33
000
FTUS43 KLOT 281605 AAB
TAFORD
TAF AMD
KORD 281605Z 2816/2918 15010KT P6SM SCT040 BKN250
     FM290100 14006KT P6SM SCT120 BKN250
     FM290700 19006KT P6SM BKN050 PROB30 2908/2914 3SM TSRA OVC050CB
     FM291400 28011KT P6SM FEW050 BKN250=

USA.gov is the U.S. government's official web portal to all federal, state and local government web resources and services.